Time;durP1;ratioP1;P1;durP2;ratioP2;P2;SDS_P1;SDS_P2;PMS_P1;PMS_P2;Temp;Humidity;BMP_temperature;BMP_pressure;BME280_temperature;BME280_humidity;BME280_pressure;Samples;Min_cycle;Max_cycle;Signal;HPM_P1;HPM_P2
2021/08/05 00:00:59;;;;;;;4.13;2.40;;;19.40;84.40;;;;;;5074340;28;20416;-76
2021/08/05 00:03:25;;;;;;;4.03;2.40;;;19.40;84.50;;;;;;5074843;28;20032;-75
2021/08/05 00:05:51;;;;;;;3.92;2.47;;;19.40;84.60;;;;;;5075019;28;20110;-76
2021/08/05 00:08:17;;;;;;;4.20;2.78;;;19.40;84.60;;;;;;5092429;28;20047;-75
2021/08/05 00:10:42;;;;;;;3.75;2.25;;;19.40;84.80;;;;;;5074825;28;20093;-76
2021/08/05 00:13:08;;;;;;;5.90;2.83;;;19.40;84.90;;;;;;5074079;28;20370;-76
2021/08/05 00:15:34;;;;;;;3.83;2.30;;;19.40;85.10;;;;;;5074533;28;20031;-76
2021/08/05 00:17:59;;;;;;;4.22;2.58;;;19.30;85.10;;;;;;5073564;28;20135;-75
2021/08/05 00:20:25;;;;;;;4.65;2.70;;;19.30;85.30;;;;;;5092525;28;20031;-76
2021/08/05 00:22:51;;;;;;;3.95;2.50;;;19.30;85.40;;;;;;5074688;28;20024;-76
2021/08/05 00:25:16;;;;;;;4.43;2.78;;;19.30;85.40;;;;;;5073374;28;20057;-75
2021/08/05 00:27:42;;;;;;;4.43;2.78;;;19.30;85.40;;;;;;5074441;28;20020;-75
2021/08/05 00:30:08;;;;;;;5.65;2.78;;;19.30;85.50;;;;;;5073893;28;20020;-75
2021/08/05 00:32:34;;;;;;;4.60;2.90;;;19.30;85.40;;;;;;5074788;28;20024;-75
2021/08/05 00:35:00;;;;;;;6.32;3.00;;;19.20;85.50;;;;;;5074035;28;20161;-76
2021/08/05 00:37:25;;;;;;;4.35;2.67;;;19.30;85.80;;;;;;5092305;28;20028;-76
2021/08/05 00:39:51;;;;;;;4.20;2.72;;;19.30;85.80;;;;;;5092492;28;20035;-75
2021/08/05 00:42:17;;;;;;;4.70;2.67;;;19.30;85.90;;;;;;5091903;28;20024;-76
2021/08/05 00:44:42;;;;;;;4.70;2.60;;;19.30;86.00;;;;;;5074364;28;20028;-76
2021/08/05 00:47:08;;;;;;;4.35;2.80;;;19.20;86.00;;;;;;5073592;28;20043;-75
2021/08/05 00:49:34;;;;;;;4.22;2.70;;;19.20;86.20;;;;;;5074144;28;20074;-75
2021/08/05 00:52:00;;;;;;;4.65;2.65;;;19.20;86.20;;;;;;5091370;28;20047;-75
2021/08/05 00:54:25;;;;;;;5.90;2.95;;;19.20;86.30;;;;;;5091802;28;20402;-75
2021/08/05 00:56:51;;;;;;;4.25;2.65;;;19.10;86.30;;;;;;5073968;28;20107;-75
2021/08/05 00:59:18;;;;;;;4.18;2.30;;;19.10;86.50;;;;;;5073441;28;20020;-75
2021/08/05 01:01:52;;;;;;;4.78;2.63;;;19.10;86.60;;;;;;5092004;28;20020;-75
2021/08/05 01:04:19;;;;;;;4.60;2.72;;;19.10;86.80;;;;;;5091556;28;20275;-75
2021/08/05 01:07:01;;;;;;;4.38;2.55;;;19.00;86.70;;;;;;5074061;28;20016;-76
2021/08/05 01:09:38;;;;;;;4.57;3.22;;;19.00;87.10;;;;;;5074450;28;20063;-76
2021/08/05 01:12:12;;;;;;;5.53;2.72;;;18.90;87.00;;;;;;5073101;28;20032;-76
2021/08/05 01:14:40;;;;;;;4.97;3.05;;;18.90;87.20;;;;;;5073598;28;20082;-75
2021/08/05 01:17:08;;;;;;;4.80;3.20;;;18.90;87.30;;;;;;5090444;28;20048;-76
2021/08/05 01:19:47;;;;;;;4.20;2.78;;;18.80;87.40;;;;;;5073787;28;20080;-75
2021/08/05 01:22:35;;;;;;;4.97;3.17;;;18.90;87.70;;;;;;5073363;28;20199;-75
2021/08/05 01:25:09;;;;;;;5.63;3.50;;;18.80;87.60;;;;;;5073129;28;20028;-76
2021/08/05 01:27:35;;;;;;;6.53;3.35;;;18.80;87.60;;;;;;5091809;28;20027;-75
2021/08/05 01:30:04;;;;;;;6.05;3.63;;;18.80;87.70;;;;;;5091296;28;20088;-76
2021/08/05 01:32:30;;;;;;;5.32;3.28;;;18.70;87.80;;;;;;5091665;28;20103;-75
2021/08/05 01:34:58;;;;;;;5.72;3.10;;;18.70;88.00;;;;;;5091513;28;20036;-75
2021/08/05 01:37:25;;;;;;;6.30;3.35;;;18.70;88.20;;;;;;5094416;28;20077;-75
2021/08/05 01:39:52;;;;;;;5.28;3.33;;;18.70;88.40;;;;;;5095618;28;20357;-75
2021/08/05 01:42:20;;;;;;;5.15;3.30;;;18.60;88.40;;;;;;5095049;28;20393;-75
2021/08/05 01:44:49;;;;;;;6.03;3.67;;;18.60;88.50;;;;;;5077580;28;20027;-75
2021/08/05 01:47:17;;;;;;;6.63;3.97;;;18.60;88.60;;;;;;5077004;28;20410;-75
2021/08/05 01:49:44;;;;;;;4.60;3.13;;;18.60;88.70;;;;;;5077640;28;20107;-75
2021/08/05 01:52:12;;;;;;;5.82;3.67;;;18.60;88.70;;;;;;5095079;28;20034;-76
2021/08/05 01:54:39;;;;;;;7.88;3.78;;;18.60;88.70;;;;;;5095353;28;20418;-75
2021/08/05 01:57:05;;;;;;;5.70;3.35;;;18.60;88.70;;;;;;5076412;28;20028;-76
2021/08/05 01:59:30;;;;;;;6.05;3.50;;;18.60;88.70;;;;;;5077222;28;20455;-75
2021/08/05 02:01:56;;;;;;;5.32;3.60;;;18.60;88.80;;;;;;5077294;28;20058;-75
2021/08/05 02:04:37;;;;;;;5.75;3.50;;;18.60;88.80;;;;;;5076649;28;20266;-75
2021/08/05 02:07:15;;;;;;;;;;;18.60;89.00;;;;;;5095131;28;20111;-78
2021/08/05 02:09:47;;;;;;;5.63;3.35;;;18.60;88.70;;;;;;5077385;28;19912;-75
2021/08/05 02:12:13;;;;;;;5.90;3.80;;;18.50;88.60;;;;;;5094982;28;20409;-75
2021/08/05 02:14:39;;;;;;;6.30;3.63;;;18.60;88.70;;;;;;5095179;28;20112;-75
2021/08/05 02:17:07;;;;;;;5.25;3.85;;;18.50;88.90;;;;;;5072856;28;20051;-75
2021/08/05 02:19:34;;;;;;;6.32;3.72;;;18.50;89.00;;;;;;5074964;28;20070;-75
2021/08/05 02:22:01;;;;;;;6.65;3.78;;;18.50;89.00;;;;;;5074825;28;20554;-75
2021/08/05 02:24:30;;;;;;;6.25;3.92;;;18.50;89.10;;;;;;5072910;28;20119;-75
2021/08/05 02:27:00;;;;;;;4.95;3.28;;;18.40;89.20;;;;;;5073503;28;20048;-76
2021/08/05 02:29:28;;;;;;;7.28;3.85;;;18.40;89.40;;;;;;5072747;28;20567;-75
2021/08/05 02:31:55;;;;;;;6.65;3.65;;;18.40;89.50;;;;;;5074707;28;20472;-75
2021/08/05 02:34:23;;;;;;;5.40;3.72;;;18.40;89.60;;;;;;5072538;28;20033;-76
2021/08/05 02:36:49;;;;;;;7.43;4.25;;;18.40;89.50;;;;;;5074783;28;20519;-76
2021/08/05 02:39:15;;;;;;;6.20;3.95;;;18.40;89.50;;;;;;5072637;28;20151;-75
2021/08/05 02:41:41;;;;;;;6.65;4.22;;;18.40;89.50;;;;;;5073260;28;20028;-76
2021/08/05 02:44:07;;;;;;;5.68;4.10;;;18.40;89.40;;;;;;5072502;28;20020;-76
2021/08/05 02:46:34;;;;;;;6.45;3.67;;;18.40;89.50;;;;;;5072614;28;20039;-76
2021/08/05 02:49:01;;;;;;;6.95;3.90;;;18.40;89.40;;;;;;5074108;28;20099;-75
2021/08/05 02:51:27;;;;;;;5.43;3.60;;;18.50;89.40;;;;;;5072324;28;20039;-76
2021/08/05 02:53:55;;;;;;;5.38;4.00;;;18.50;89.40;;;;;;5073015;28;20020;-75
2021/08/05 02:56:21;;;;;;;6.38;3.95;;;18.50;89.50;;;;;;5072307;28;20073;-76
2021/08/05 02:58:47;;;;;;;5.07;3.63;;;18.50;89.60;;;;;;5075332;28;20480;-76
2021/08/05 03:01:13;;;;;;;6.25;3.92;;;18.40;89.60;;;;;;5074224;28;20492;-76
2021/08/05 03:03:40;;;;;;;7.68;4.20;;;18.50;89.80;;;;;;5072976;28;20025;-75
2021/08/05 03:06:08;;;;;;;6.95;4.13;;;18.50;89.80;;;;;;5072450;28;20119;-75
2021/08/05 03:08:41;;;;;;;5.68;3.85;;;18.50;89.80;;;;;;5073852;28;20052;-76
2021/08/05 03:11:07;;;;;;;6.03;4.07;;;18.50;89.80;;;;;;5073997;28;20020;-76
2021/08/05 03:13:32;;;;;;;5.70;3.80;;;18.50;89.70;;;;;;5073983;28;20487;-75
2021/08/05 03:15:58;;;;;;;6.32;4.05;;;18.50;89.60;;;;;;5073216;28;20025;-75
2021/08/05 03:18:24;;;;;;;5.00;3.75;;;18.50;89.60;;;;;;5075290;28;20085;-75
2021/08/05 03:20:49;;;;;;;5.22;3.38;;;18.50;89.60;;;;;;5075641;28;20468;-75
2021/08/05 03:23:15;;;;;;;5.45;3.63;;;18.50;89.60;;;;;;5093572;28;20059;-76
2021/08/05 03:25:41;;;;;;;5.30;3.38;;;18.50;89.50;;;;;;5093606;28;20056;-75
2021/08/05 03:28:06;;;;;;;6.05;4.00;;;18.50;89.50;;;;;;5075750;28;20024;-76
2021/08/05 03:30:32;;;;;;;6.35;3.92;;;18.50;89.50;;;;;;5092911;28;20484;-76
2021/08/05 03:33:01;;;;;;;6.10;3.60;;;18.50;89.60;;;;;;5093953;28;20024;-75
2021/08/05 03:35:27;;;;;;;6.72;3.58;;;18.40;89.50;;;;;;5074821;28;20024;-76
2021/08/05 03:37:53;;;;;;;5.40;3.30;;;18.40;89.60;;;;;;5075381;28;20024;-75
2021/08/05 03:40:19;;;;;;;5.70;3.47;;;18.40;89.70;;;;;;5092932;28;20054;-75
2021/08/05 03:42:44;;;;;;;5.35;3.67;;;18.40;89.70;;;;;;5075606;28;20024;-75
2021/08/05 03:45:10;;;;;;;6.72;3.67;;;18.40;89.70;;;;;;5074800;28;20024;-76
2021/08/05 03:47:36;;;;;;;5.25;3.40;;;18.40;89.70;;;;;;5075197;28;20027;-75
2021/08/05 03:50:04;;;;;;;6.13;3.97;;;18.40;89.70;;;;;;5093427;28;20456;-75
2021/08/05 03:52:29;;;;;;;6.05;3.90;;;18.40;89.70;;;;;;5074595;28;20028;-75
2021/08/05 03:54:55;;;;;;;6.38;4.13;;;18.40;89.70;;;;;;5075169;28;20114;-74
2021/08/05 03:57:21;;;;;;;7.15;4.60;;;18.40;89.80;;;;;;5074438;28;20020;-75
2021/08/05 03:59:46;;;;;;;8.40;4.22;;;18.30;89.90;;;;;;5074270;28;20075;-75
2021/08/05 04:02:12;;;;;;;7.75;4.38;;;18.40;90.00;;;;;;5092272;28;20020;-76
2021/08/05 04:04:38;;;;;;;5.47;3.55;;;18.40;90.00;;;;;;5093206;28;20028;-75
2021/08/05 04:07:05;;;;;;;5.22;3.75;;;18.30;90.00;;;;;;5074843;28;20020;-75
2021/08/05 04:09:31;;;;;;;6.78;4.07;;;18.30;90.00;;;;;;5074255;28;20532;-75
2021/08/05 04:11:56;;;;;;;9.52;3.80;;;18.30;90.00;;;;;;5074761;28;20055;-75
2021/08/05 04:14:22;;;;;;;7.35;4.05;;;18.30;90.10;;;;;;5092023;28;20024;-75
2021/08/05 04:16:48;;;;;;;6.03;4.15;;;18.30;90.00;;;;;;5092445;28;20075;-74
2021/08/05 04:19:13;;;;;;;8.43;4.68;;;18.30;90.00;;;;;;5073655;28;20035;-75
2021/08/05 04:21:39;;;;;;;9.00;4.30;;;18.30;90.00;;;;;;5074720;28;20024;-74
2021/08/05 04:24:05;;;;;;;7.75;4.50;;;18.30;90.00;;;;;;5074396;28;20085;-74
2021/08/05 04:26:31;;;;;;;10.15;5.03;;;18.30;90.00;;;;;;5073783;28;20024;-74
2021/08/05 04:28:56;;;;;;;6.85;3.95;;;18.30;90.00;;;;;;5074818;28;20069;-74
2021/08/05 04:31:22;;;;;;;7.25;4.28;;;18.30;90.00;;;;;;5073425;28;20446;-75
2021/08/05 04:33:49;;;;;;;7.25;4.20;;;18.30;90.00;;;;;;5074417;28;20034;-75
2021/08/05 04:36:14;;;;;;;6.00;3.80;;;18.30;90.00;;;;;;5091518;28;20072;-78
2021/08/05 04:38:40;;;;;;;7.45;4.47;;;18.30;90.10;;;;;;5092300;28;20102;-76
2021/08/05 04:41:06;;;;;;;6.60;4.13;;;18.30;90.10;;;;;;5079134;28;20028;-76
2021/08/05 04:43:31;;;;;;;7.25;4.03;;;18.30;90.10;;;;;;5056520;28;20444;-76
2021/08/05 04:45:57;;;;;;;6.90;4.40;;;18.30;90.10;;;;;;5080188;28;20409;-76
2021/08/05 04:48:27;;;;;;;6.32;3.92;;;18.30;90.00;;;;;;5061264;28;20424;-78
2021/08/05 04:50:53;;;;;;;7.20;4.35;;;18.40;90.10;;;;;;5064894;28;20024;-76
2021/08/05 04:53:19;;;;;;;7.05;4.20;;;18.30;90.10;;;;;;5059299;28;20055;-76
2021/08/05 04:55:45;;;;;;;6.50;4.05;;;18.40;90.10;;;;;;5065164;28;20024;-76
2021/08/05 04:58:11;;;;;;;6.22;4.05;;;18.40;90.10;;;;;;5079793;28;20024;-76
2021/08/05 05:00:41;;;;;;;7.15;4.30;;;18.40;90.10;;;;;;5060727;28;20703;-76
2021/08/05 05:03:08;;;;;;;9.00;3.88;;;18.40;90.20;;;;;;5059925;28;20645;-76
2021/08/05 05:05:36;;;;;;;6.20;4.03;;;18.40;90.10;;;;;;5078476;28;20735;-76
2021/08/05 05:08:12;;;;;;;6.28;4.30;;;18.40;90.10;;;;;;5053864;28;20107;-76
2021/08/05 05:10:38;;;;;;;7.95;4.75;;;18.40;90.10;;;;;;5052945;28;20024;-76
2021/08/05 05:13:04;;;;;;;7.95;4.63;;;18.40;90.10;;;;;;5053799;28;20089;-76
2021/08/05 05:15:29;;;;;;;8.07;4.05;;;18.40;90.10;;;;;;5056130;28;20093;-76
2021/08/05 05:17:55;;;;;;;6.38;4.00;;;18.40;90.20;;;;;;5073159;28;20441;-76
2021/08/05 05:20:20;;;;;;;6.32;3.90;;;18.40;90.20;;;;;;5090847;28;20387;-76
2021/08/05 05:22:46;;;;;;;8.35;4.20;;;18.40;90.30;;;;;;5073510;28;20089;-76
2021/08/05 05:25:12;;;;;;;6.15;3.67;;;18.40;90.20;;;;;;5071106;28;20035;-76
2021/08/05 05:27:42;;;;;;;7.75;4.38;;;18.40;90.20;;;;;;5062467;28;20036;-76
2021/08/05 05:30:09;;;;;;;6.20;3.83;;;18.40;90.30;;;;;;5051378;28;20055;-75
2021/08/05 05:32:35;;;;;;;6.22;4.68;;;18.40;90.30;;;;;;5050713;28;20155;-76
2021/08/05 05:35:03;;;;;;;8.82;5.15;;;18.40;90.30;;;;;;5069424;28;20431;-76
2021/08/05 05:37:28;;;;;;;6.47;4.40;;;18.50;90.30;;;;;;5049877;28;20531;-76
2021/08/05 05:39:55;;;;;;;6.70;4.43;;;18.50;90.30;;;;;;5051286;28;20111;-75
2021/08/05 05:42:22;;;;;;;7.20;5.18;;;18.50;90.30;;;;;;5050661;28;20372;-75
2021/08/05 05:44:49;;;;;;;8.25;5.10;;;18.50;90.30;;;;;;5069329;28;20024;-76
2021/08/05 05:47:14;;;;;;;6.95;4.18;;;18.60;90.30;;;;;;5069260;28;20078;-75
2021/08/05 05:49:41;;;;;;;9.70;5.93;;;18.60;90.30;;;;;;5068336;28;20028;-76
2021/08/05 05:52:07;;;;;;;8.43;5.03;;;18.60;90.30;;;;;;5050638;28;20436;-76
2021/08/05 05:54:33;;;;;;;7.60;4.95;;;18.60;90.30;;;;;;5051081;28;20040;-75
2021/08/05 05:56:59;;;;;;;7.38;5.00;;;18.60;90.30;;;;;;5072781;28;20478;-75
2021/08/05 05:59:25;;;;;;;9.10;4.97;;;18.60;90.30;;;;;;5070262;28;20028;-75
2021/08/05 06:01:51;;;;;;;9.13;5.30;;;18.70;90.30;;;;;;5071281;28;20016;-75
2021/08/05 06:04:16;;;;;;;8.90;5.45;;;18.70;90.30;;;;;;5071189;28;20032;-75
2021/08/05 06:06:42;;;;;;;8.60;5.10;;;18.70;90.30;;;;;;5070014;28;20376;-75
2021/08/05 06:09:07;;;;;;;9.52;6.05;;;18.70;90.30;;;;;;5071203;28;20036;-75
2021/08/05 06:11:33;;;;;;;8.65;5.43;;;18.70;90.30;;;;;;5070436;28;20052;-75
2021/08/05 06:13:59;;;;;;;7.45;5.07;;;18.70;90.30;;;;;;5071040;28;20020;-74
2021/08/05 06:16:25;;;;;;;9.68;5.70;;;18.70;90.30;;;;;;5069854;28;20037;-75
2021/08/05 06:18:51;;;;;;;9.50;6.07;;;18.70;90.30;;;;;;5070963;28;20020;-75
2021/08/05 06:21:17;;;;;;;9.50;5.88;;;18.70;90.30;;;;;;5070795;28;20476;-75
2021/08/05 06:23:43;;;;;;;8.38;5.78;;;18.70;90.30;;;;;;5055621;28;20029;-75
2021/08/05 06:26:09;;;;;;;8.65;5.80;;;18.70;90.40;;;;;;5074457;28;20028;-75
2021/08/05 06:28:35;;;;;;;9.82;6.10;;;18.60;90.40;;;;;;5073919;28;20024;-75
2021/08/05 06:31:04;;;;;;;8.77;5.60;;;18.60;90.40;;;;;;5074176;28;20035;-75
2021/08/05 06:33:31;;;;;;;8.88;5.47;;;18.70;90.40;;;;;;5073607;28;20380;-75
2021/08/05 06:35:57;;;;;;;8.45;5.93;;;18.70;90.50;;;;;;5074215;28;20120;-75
2021/08/05 06:38:23;;;;;;;8.25;5.75;;;18.70;90.40;;;;;;5073835;28;20062;-74
2021/08/05 06:40:48;;;;;;;10.15;5.97;;;18.80;90.40;;;;;;5074273;28;20027;-75
2021/08/05 06:43:14;;;;;;;9.85;6.15;;;18.80;90.40;;;;;;5074118;28;20021;-75
2021/08/05 06:45:40;;;;;;;10.10;6.32;;;18.80;90.30;;;;;;5073276;28;20033;-74
2021/08/05 06:48:06;;;;;;;10.00;6.35;;;18.90;90.30;;;;;;5074306;28;20452;-74
2021/08/05 06:50:32;;;;;;;9.75;6.47;;;18.90;90.30;;;;;;5073609;28;20436;-75
2021/08/05 06:52:58;;;;;;;10.27;6.88;;;19.00;90.20;;;;;;5056454;28;20017;-74
2021/08/05 06:55:24;;;;;;;10.10;7.03;;;19.10;90.20;;;;;;5073483;28;20035;-75
2021/08/05 06:57:49;;;;;;;8.68;6.28;;;19.10;90.40;;;;;;5056093;28;20021;-74
2021/08/05 07:00:15;;;;;;;9.85;6.50;;;19.10;90.00;;;;;;5074014;28;20107;-74
2021/08/05 07:02:41;;;;;;;9.23;6.40;;;19.10;90.00;;;;;;5073280;28;20092;-74
2021/08/05 07:05:10;;;;;;;9.48;6.00;;;19.10;90.00;;;;;;5073906;28;20021;-74
2021/08/05 07:07:35;;;;;;;9.18;6.22;;;19.10;90.10;;;;;;5055248;28;20028;-75
2021/08/05 07:10:02;;;;;;;8.68;6.35;;;19.10;90.10;;;;;;5073617;28;20021;-74
2021/08/05 07:12:28;;;;;;;10.27;6.18;;;19.10;90.00;;;;;;5055003;28;20383;-75
2021/08/05 07:14:54;;;;;;;11.07;7.80;;;19.10;90.00;;;;;;5073638;28;20082;-75
2021/08/05 07:17:20;;;;;;;11.45;7.20;;;19.10;90.00;;;;;;5073319;28;20049;-74
2021/08/05 07:19:45;;;;;;;10.10;6.45;;;19.20;90.00;;;;;;5072735;28;20024;-75
2021/08/05 07:22:11;;;;;;;9.63;6.55;;;19.30;90.00;;;;;;5073528;28;20510;-74
2021/08/05 07:24:37;;;;;;;11.38;7.75;;;19.30;89.90;;;;;;5073173;28;20475;-75
2021/08/05 07:27:04;;;;;;;10.93;7.20;;;19.40;90.10;;;;;;5073098;28;20025;-75
2021/08/05 07:29:30;;;;;;;20.85;7.03;;;19.40;89.60;;;;;;5072675;28;20020;-75
2021/08/05 07:31:59;;;;;;;12.68;8.32;;;19.50;89.40;;;;;;5073353;28;20673;-75
2021/08/05 07:34:25;;;;;;;9.82;6.63;;;19.50;89.20;;;;;;5073307;28;20024;-75
2021/08/05 07:36:50;;;;;;;12.13;7.60;;;19.60;89.00;;;;;;5072913;28;20028;-75
2021/08/05 07:39:16;;;;;;;12.75;8.15;;;19.60;88.80;;;;;;5073258;28;20028;-74
2021/08/05 07:41:42;;;;;;;11.77;7.18;;;19.70;88.70;;;;;;5054627;28;20101;-74
2021/08/05 07:44:09;;;;;;;9.68;5.82;;;19.70;88.50;;;;;;5073582;28;20039;-75
2021/08/05 07:46:35;;;;;;;14.70;8.13;;;19.70;88.30;;;;;;5054468;28;20021;-74
2021/08/05 07:49:01;;;;;;;11.73;7.53;;;19.70;88.20;;;;;;5073518;28;20027;-75
2021/08/05 07:51:27;;;;;;;12.45;8.23;;;19.80;88.20;;;;;;5072223;28;20111;-74
2021/08/05 07:53:53;;;;;;;11.48;7.70;;;19.80;88.10;;;;;;5072783;28;20464;-75
2021/08/05 07:56:21;;;;;;;13.20;8.95;;;19.80;88.00;;;;;;5072373;28;20480;-75
2021/08/05 07:58:47;;;;;;;11.05;6.85;;;19.90;88.00;;;;;;5072222;28;20258;-75
2021/08/05 08:01:13;;;;;;;11.32;7.72;;;19.90;88.60;;;;;;5073047;28;20025;-74
2021/08/05 08:03:39;;;;;;;14.50;8.70;;;19.90;87.90;;;;;;5072133;28;20047;-75
2021/08/05 08:06:05;;;;;;;13.70;8.77;;;20.00;87.90;;;;;;5073120;28;20086;-75
2021/08/05 08:08:30;;;;;;;13.98;8.88;;;20.00;87.80;;;;;;5072327;28;20020;-75
2021/08/05 08:10:56;;;;;;;15.30;9.50;;;20.00;87.70;;;;;;5072361;28;20422;-75
2021/08/05 08:13:22;;;;;;;18.92;9.13;;;20.00;87.70;;;;;;5072560;28;20099;-75
2021/08/05 08:15:47;;;;;;;16.50;9.57;;;20.00;87.80;;;;;;5053863;28;20036;-75
2021/08/05 08:18:14;;;;;;;14.68;9.38;;;20.00;87.80;;;;;;5072489;28;20465;-74
2021/08/05 08:20:39;;;;;;;18.02;9.60;;;20.10;87.80;;;;;;5053776;28;20029;-75
2021/08/05 08:23:05;;;;;;;15.20;9.30;;;20.10;87.50;;;;;;5072205;28;20025;-75
2021/08/05 08:25:32;;;;;;;15.32;9.10;;;20.20;87.30;;;;;;5071514;28;20078;-77
2021/08/05 08:27:58;;;;;;;23.60;9.32;;;20.30;87.20;;;;;;5054647;28;20036;-77
2021/08/05 08:30:25;;;;;;;16.00;9.93;;;20.30;87.00;;;;;;5072324;28;20376;-77
2021/08/05 08:32:51;;;;;;;17.42;10.77;;;20.30;87.00;;;;;;5071481;28;20081;-75
2021/08/05 08:35:17;;;;;;;15.85;10.15;;;20.30;86.80;;;;;;5071990;28;20325;-74
2021/08/05 08:37:43;;;;;;;16.63;10.13;;;20.40;86.70;;;;;;5071338;28;20417;-75
2021/08/05 08:40:10;;;;;;;14.95;9.63;;;20.50;86.50;;;;;;5072235;28;20021;-75
2021/08/05 08:42:36;;;;;;;14.80;8.55;;;20.50;86.40;;;;;;5071358;28;20028;-75
2021/08/05 08:45:02;;;;;;;14.40;8.77;;;20.50;86.30;;;;;;5053623;28;20329;-75
2021/08/05 08:47:30;;;;;;;12.88;8.38;;;20.60;86.10;;;;;;5071814;28;20016;-75
2021/08/05 08:49:57;;;;;;;17.38;9.80;;;20.70;85.90;;;;;;5072083;28;20483;-75
2021/08/05 08:52:25;;;;;;;16.20;9.02;;;20.80;85.80;;;;;;5071941;28;20425;-75
2021/08/05 08:54:51;;;;;;;11.30;7.60;;;20.80;85.40;;;;;;5071330;28;20040;-75
2021/08/05 08:57:20;;;;;;;14.80;9.45;;;20.80;85.40;;;;;;5071915;28;20032;-75
2021/08/05 08:59:47;;;;;;;14.27;9.40;;;20.80;85.30;;;;;;5053204;28;20410;-75
2021/08/05 09:02:14;;;;;;;17.25;10.57;;;20.80;85.20;;;;;;5071632;28;20031;-75
2021/08/05 09:04:40;;;;;;;16.92;10.55;;;20.80;85.10;;;;;;5071370;28;20506;-75
2021/08/05 09:07:06;;;;;;;16.58;10.23;;;20.90;85.00;;;;;;5071916;28;20024;-75
2021/08/05 09:09:32;;;;;;;14.10;9.95;;;20.90;84.80;;;;;;5071126;28;20099;-75
2021/08/05 09:11:58;;;;;;;16.35;10.50;;;20.90;84.70;;;;;;5071711;28;20025;-75
2021/08/05 09:14:47;;;;;;;16.90;10.82;;;20.90;84.60;;;;;;5071775;28;20031;-75
2021/08/05 09:17:26;;;;;;;15.52;10.32;;;20.90;84.50;;;;;;5071626;28;20049;-75
2021/08/05 09:19:55;;;;;;;15.93;9.93;;;21.00;84.60;;;;;;5070822;28;20715;-75
2021/08/05 09:22:33;;;;;;;11.77;7.38;;;20.90;84.50;;;;;;5071588;28;20024;-75
2021/08/05 09:25:30;;;;;;;16.58;10.88;;;20.90;84.50;;;;;;5071858;28;20028;-75
2021/08/05 09:28:24;;;;;;;15.52;10.10;;;20.90;84.40;;;;;;5070917;28;20119;-75
2021/08/05 09:30:49;;;;;;;16.73;10.10;;;20.80;84.30;;;;;;5066856;28;20123;-75
2021/08/05 09:33:17;;;;;;;14.57;9.95;;;20.90;84.30;;;;;;5071186;28;20127;-75
2021/08/05 09:35:45;;;;;;;17.30;10.75;;;20.90;84.20;;;;;;5070576;28;20490;-75
2021/08/05 09:38:26;;;;;;;15.63;10.13;;;20.90;84.00;;;;;;5071572;28;20032;-75
2021/08/05 09:41:03;;;;;;;12.75;7.35;;;20.90;83.90;;;;;;5070818;28;20020;-75
2021/08/05 09:43:29;;;;;;;13.82;9.20;;;21.00;83.90;;;;;;5071077;28;20029;-75
2021/08/05 09:45:55;;;;;;;16.42;10.15;;;21.00;83.80;;;;;;5070660;28;20368;-77
2021/08/05 09:48:56;;;;;;;13.70;8.98;;;21.00;83.70;;;;;;5071253;28;20024;-77
2021/08/05 09:51:22;;;;;;;16.80;9.32;;;21.00;83.50;;;;;;4970275;28;20522;-77
2021/08/05 09:54:04;;;;;;;16.52;10.57;;;21.00;83.30;;;;;;5049978;28;20043;-76
2021/08/05 09:56:33;;;;;;;18.02;12.05;;;21.10;82.90;;;;;;5071122;28;20036;-77
2021/08/05 09:59:13;;;;;;;17.20;11.75;;;21.10;82.20;;;;;;5056549;28;20467;-74
2021/08/05 10:02:02;;;;;;;14.13;9.27;;;21.10;81.80;;;;;;5074612;28;20028;-76
2021/08/05 10:04:30;;;;;;;14.57;9.98;;;21.10;81.60;;;;;;5074851;28;20437;-76
2021/08/05 10:07:05;;;;;;;13.65;9.38;;;21.10;81.20;;;;;;5074643;28;20103;-76
2021/08/05 10:09:32;;;;;;;13.10;8.63;;;21.20;80.70;;;;;;5074995;28;20025;-75
2021/08/05 10:12:16;;;;;;;14.45;9.60;;;21.20;80.70;;;;;;5074766;28;20024;-74
2021/08/05 10:14:42;;;;;;;17.55;10.20;;;21.20;80.40;;;;;;5077587;28;20429;-74
2021/08/05 10:17:09;;;;;;;13.20;8.88;;;21.30;80.30;;;;;;5074575;28;20120;-74
2021/08/05 10:19:39;;;;;;;11.18;8.27;;;21.30;79.60;;;;;;5074805;28;20021;-74
2021/08/05 10:22:07;;;;;;;12.95;8.07;;;21.30;79.30;;;;;;5074748;28;20407;-75
2021/08/05 10:24:41;;;;;;;11.13;7.30;;;21.30;78.90;;;;;;5074631;28;20522;-75
2021/08/05 10:27:09;;;;;;;9.82;7.78;;;21.40;78.90;;;;;;5074670;28;20028;-75
2021/08/05 10:29:36;;;;;;;8.32;5.53;;;21.40;78.70;;;;;;5074463;28;20031;-75
2021/08/05 10:32:07;;;;;;;13.93;8.90;;;21.50;78.60;;;;;;5055989;28;20040;-74
2021/08/05 10:34:35;;;;;;;12.45;8.75;;;21.60;78.30;;;;;;5056472;28;20085;-74
2021/08/05 10:37:03;;;;;;;11.70;8.10;;;21.70;78.20;;;;;;5073835;28;20586;-75
2021/08/05 10:39:30;;;;;;;14.32;9.18;;;21.70;78.00;;;;;;5056424;28;20040;-74
2021/08/05 10:42:00;;;;;;;11.10;7.90;;;21.80;77.90;;;;;;5073846;28;20107;-74
2021/08/05 10:44:28;;;;;;;10.57;7.45;;;21.90;77.60;;;;;;5074255;28;20024;-76
2021/08/05 10:46:56;;;;;;;11.73;7.57;;;21.90;77.30;;;;;;5073857;28;20021;-74
2021/08/05 10:49:23;;;;;;;12.00;7.53;;;22.00;77.10;;;;;;5056338;28;20494;-74
2021/08/05 10:51:50;;;;;;;10.90;7.63;;;22.10;76.90;;;;;;5073707;28;20500;-75
2021/08/05 10:54:46;;;;;;;9.00;6.53;;;22.10;76.80;;;;;;5074269;28;20021;-74
2021/08/05 10:57:22;;;;;;;11.02;7.97;;;22.20;76.80;;;;;;5056224;28;20086;-75
2021/08/05 11:00:20;;;;;;;13.13;8.98;;;22.20;75.90;;;;;;5073635;28;20483;-73
2021/08/05 11:02:50;;;;;;;13.60;8.88;;;22.20;75.70;;;;;;5026644;28;20032;-75
2021/08/05 11:05:25;;;;;;;13.37;8.87;;;22.30;75.80;;;;;;5075209;28;20105;-73
2021/08/05 11:07:55;;;;;;;7.00;4.90;;;22.30;75.30;;;;;;5092683;28;20028;-75
2021/08/05 11:10:25;;;;;;;9.57;6.35;;;22.40;75.40;;;;;;5094130;28;20028;-74
2021/08/05 11:13:12;;;;;;;13.35;7.72;;;22.40;75.20;;;;;;5093612;28;20020;-75
2021/08/05 11:15:38;;;;;;;11.18;6.68;;;22.40;74.80;;;;;;5094037;28;20035;-74
2021/08/05 11:18:07;;;;;;;12.80;8.10;;;22.50;74.80;;;;;;5092883;28;20055;-75
2021/08/05 11:20:37;;;;;;;12.32;7.43;;;22.60;74.00;;;;;;5093944;28;20497;-75
2021/08/05 11:23:04;;;;;;;9.85;6.13;;;22.70;73.60;;;;;;5093052;28;20028;-75
2021/08/05 11:25:52;;;;;;;14.20;10.05;;;22.80;73.50;;;;;;5093887;28;20107;-75
2021/08/05 11:28:21;;;;;;;12.32;8.60;;;22.90;72.60;;;;;;5093849;28;20024;-75
2021/08/05 11:30:50;;;;;;;7.57;5.78;;;22.90;72.50;;;;;;5093038;28;20058;-75
2021/08/05 11:36:11;;;;;;;12.35;8.02;;;23.00;72.40;;;;;;5079265;28;20040;-75
2021/08/05 11:39:02;;;;;;;11.23;7.85;;;23.10;72.40;;;;;;5093452;28;20060;-75
2021/08/05 11:41:55;;;;;;;9.25;7.20;;;23.20;72.10;;;;;;5093508;28;20459;-75
2021/08/05 11:44:32;;;;;;;10.00;7.32;;;23.30;72.00;;;;;;5075419;28;20028;-75
2021/08/05 11:47:01;;;;;;;12.85;9.70;;;23.30;71.70;;;;;;5074896;28;20055;-75
2021/08/05 11:49:32;;;;;;;10.60;7.85;;;23.20;71.10;;;;;;5093441;28;20031;-75
2021/08/05 11:51:58;;;;;;;11.50;8.80;;;23.20;71.10;;;;;;5092411;28;20054;-75
2021/08/05 11:54:24;;;;;;;10.13;7.50;;;23.10;71.20;;;;;;5093151;28;20024;-75
2021/08/05 11:57:07;;;;;;;10.75;7.65;;;23.20;71.30;;;;;;5092313;28;20388;-75
2021/08/05 11:59:38;;;;;;;9.73;5.93;;;23.30;70.80;;;;;;5093303;28;20069;-75
2021/08/05 12:02:15;;;;;;;7.88;5.80;;;23.60;70.70;;;;;;5092600;28;20362;-75
2021/08/05 12:04:42;;;;;;;11.40;7.63;;;23.80;70.30;;;;;;5093137;28;20031;-75
2021/08/05 12:07:24;;;;;;;10.98;8.18;;;23.90;69.60;;;;;;5092275;28;20024;-75
2021/08/05 12:10:07;;;;;;;12.27;9.00;;;24.10;68.90;;;;;;5092454;28;20020;-75
2021/08/05 12:12:40;;;;;;;12.95;7.80;;;24.10;68.20;;;;;;5092966;28;20020;-75
2021/08/05 12:15:07;;;;;;;11.35;8.00;;;24.10;68.20;;;;;;5073846;28;20089;-75
2021/08/05 12:17:38;;;;;;;12.15;7.60;;;24.20;68.10;;;;;;5074227;28;20040;-75
2021/08/05 12:20:11;;;;;;;12.32;8.52;;;24.40;68.00;;;;;;5073322;28;20070;-75
2021/08/05 12:22:40;;;;;;;11.45;7.82;;;24.50;67.90;;;;;;5092824;28;20468;-75
2021/08/05 12:25:21;;;;;;;13.13;8.85;;;24.60;67.50;;;;;;5073924;28;20551;-75
2021/08/05 12:28:00;;;;;;;9.65;7.15;;;24.60;67.40;;;;;;5091953;28;20427;-75
2021/08/05 12:30:40;;;;;;;8.20;4.90;;;24.60;67.70;;;;;;5092686;28;20026;-75
2021/08/05 12:33:17;;;;;;;10.80;8.07;;;24.50;68.20;;;;;;5092108;28;20916;-75
2021/08/05 12:35:57;;;;;;;12.50;8.52;;;24.30;68.80;;;;;;5074447;28;20044;-75
2021/08/05 12:38:23;;;;;;;16.58;10.75;;;24.10;69.50;;;;;;5096261;28;20020;-75
2021/08/05 12:40:49;;;;;;;11.95;8.35;;;23.90;70.30;;;;;;5092321;28;20078;-76
2021/08/05 12:43:16;;;;;;;20.13;12.00;;;23.80;71.20;;;;;;5092502;28;20027;-75
2021/08/05 12:45:45;;;;;;;25.08;14.25;;;23.60;72.40;;;;;;5092410;28;20028;-75
2021/08/05 12:48:12;;;;;;;19.63;13.50;;;23.40;73.90;;;;;;5091471;28;20032;-76
2021/08/05 12:50:46;;;;;;;19.60;13.55;;;23.20;74.60;;;;;;5092352;28;20027;-75
2021/08/05 12:53:26;;;;;;;17.33;10.65;;;23.10;75.70;;;;;;5092309;28;20020;-75